createdAt,value
2022-08-30T00:02:05.478Z,22.20
2022-08-30T00:04:32.230Z,22.00
2022-08-30T00:06:59.881Z,22.00
2022-08-30T00:09:26.695Z,22.10
2022-08-30T00:11:53.531Z,22.00
2022-08-30T00:14:20.365Z,21.90
2022-08-30T00:16:47.285Z,21.80
2022-08-30T00:19:14.210Z,22.00
2022-08-30T00:21:41.082Z,22.00
2022-08-30T00:24:08.275Z,22.00
2022-08-30T00:26:35.115Z,22.20
2022-08-30T00:29:01.919Z,22.20
2022-08-30T00:31:28.867Z,22.30
2022-08-30T00:33:55.621Z,22.30
2022-08-30T00:36:22.410Z,22.20
2022-08-30T00:38:49.194Z,22.00
2022-08-30T00:41:16.042Z,22.00
2022-08-30T00:43:42.814Z,22.10
2022-08-30T00:46:10.337Z,22.10
2022-08-30T00:48:44.738Z,22.10
2022-08-30T00:51:14.150Z,22.00
2022-08-30T00:53:43.904Z,21.90
2022-08-30T00:56:11.903Z,21.90
2022-08-30T00:58:43.909Z,21.90
2022-08-30T01:01:11.117Z,21.90
2022-08-30T01:03:39.363Z,21.90
2022-08-30T01:06:07.540Z,21.90
2022-08-30T01:08:35.201Z,21.90
2022-08-30T01:11:04.087Z,21.90
2022-08-30T01:13:31.545Z,21.90
2022-08-30T01:16:00.040Z,21.90
2022-08-30T01:18:27.581Z,22.00
2022-08-30T01:21:16.116Z,22.10
2022-08-30T01:23:45.681Z,22.00
2022-08-30T01:26:15.897Z,21.70
2022-08-30T01:28:46.373Z,21.80
2022-08-30T01:31:13.690Z,21.80
2022-08-30T01:33:40.591Z,21.90
2022-08-30T01:36:12.232Z,21.70
2022-08-30T01:38:50.127Z,21.60
2022-08-30T01:41:36.093Z,21.60
2022-08-30T01:44:10.241Z,21.70
2022-08-30T01:46:42.400Z,21.70
2022-08-30T01:49:13.002Z,21.80
2022-08-30T01:51:40.760Z,21.70
2022-08-30T01:54:07.768Z,21.40
2022-08-30T01:56:34.894Z,21.50
2022-08-30T01:59:03.149Z,21.60
2022-08-30T02:01:32.996Z,21.30
2022-08-30T02:04:00.146Z,21.20
2022-08-30T02:06:27.396Z,21.30
2022-08-30T02:08:54.331Z,21.40
2022-08-30T02:11:21.337Z,21.50
2022-08-30T02:13:48.406Z,21.20
2022-08-30T02:16:19.484Z,21.10
2022-08-30T02:18:46.418Z,21.10
2022-08-30T02:21:13.711Z,20.80
2022-08-30T02:23:41.597Z,20.70
2022-08-30T02:26:09.089Z,20.60
2022-08-30T02:28:42.803Z,20.60
2022-08-30T02:31:19.514Z,20.40
2022-08-30T02:33:50.572Z,20.10
2022-08-30T02:36:18.178Z,20.00
2022-08-30T02:38:45.158Z,19.80
2022-08-30T02:41:11.960Z,19.60
2022-08-30T02:43:39.032Z,19.50
2022-08-30T02:46:06.493Z,19.30
2022-08-30T02:48:34.041Z,19.40
2022-08-30T02:51:06.429Z,19.40
2022-08-30T02:53:36.901Z,19.30
2022-08-30T02:56:04.509Z,19.20
2022-08-30T02:58:31.887Z,19.40
2022-08-30T03:00:58.794Z,19.50
2022-08-30T03:03:25.940Z,19.60
2022-08-30T03:05:52.725Z,19.50
2022-08-30T03:08:19.573Z,19.70
2022-08-30T03:10:47.009Z,20.00
2022-08-30T03:13:13.824Z,19.70
2022-08-30T03:15:41.691Z,19.40
2022-08-30T03:18:08.609Z,19.30
2022-08-30T03:20:35.348Z,19.20
2022-08-30T03:23:02.835Z,19.40
2022-08-30T03:25:29.610Z,19.30
2022-08-30T03:27:56.653Z,19.30
2022-08-30T03:30:23.403Z,19.30
2022-08-30T03:32:50.188Z,19.50
2022-08-30T03:35:19.130Z,19.90
2022-08-30T03:37:46.866Z,20.00
2022-08-30T03:40:17.457Z,20.10
2022-08-30T03:42:46.430Z,20.30
2022-08-30T03:45:14.366Z,20.20
2022-08-30T03:47:41.945Z,20.30
2022-08-30T03:50:09.615Z,20.00
2022-08-30T03:52:36.432Z,19.60
2022-08-30T03:55:03.613Z,20.00
2022-08-30T03:57:30.414Z,20.10
2022-08-30T03:59:58.609Z,20.20
2022-08-30T04:02:25.496Z,19.70
2022-08-30T04:04:52.310Z,19.70
2022-08-30T04:07:19.447Z,19.50
2022-08-30T04:09:47.211Z,19.50
2022-08-30T04:12:14.060Z,19.80
2022-08-30T04:14:45.156Z,19.70
2022-08-30T04:17:11.909Z,19.60
2022-08-30T04:19:38.794Z,19.60
2022-08-30T04:22:06.034Z,19.60
2022-08-30T04:24:34.432Z,19.50
2022-08-30T04:27:01.476Z,19.20
2022-08-30T04:29:28.300Z,19.30
2022-08-30T04:31:55.126Z,19.40
2022-08-30T04:34:22.118Z,19.50
2022-08-30T04:36:49.570Z,19.40
2022-08-30T04:39:18.257Z,19.30
2022-08-30T04:41:45.274Z,19.80
2022-08-30T04:44:14.269Z,19.50
2022-08-30T04:46:46.574Z,19.80
2022-08-30T04:49:13.657Z,20.10
2022-08-30T04:51:40.893Z,20.20
2022-08-30T04:54:07.714Z,19.90
2022-08-30T04:56:34.745Z,19.70
2022-08-30T04:59:01.577Z,19.50
2022-08-30T05:01:30.696Z,19.80
2022-08-30T05:03:58.471Z,19.60
2022-08-30T05:06:27.589Z,19.40
2022-08-30T05:08:55.144Z,19.30
2022-08-30T05:11:23.808Z,19.30
2022-08-30T05:13:50.794Z,19.30
2022-08-30T05:16:19.367Z,19.20
2022-08-30T05:18:48.918Z,19.30
2022-08-30T05:21:19.282Z,19.30
2022-08-30T05:23:46.470Z,19.20
2022-08-30T05:26:16.894Z,19.20
2022-08-30T05:28:44.892Z,19.20
2022-08-30T05:31:26.134Z,19.10
2022-08-30T05:33:54.645Z,19.30
2022-08-30T05:36:24.175Z,19.70
2022-08-30T05:38:51.427Z,19.60
2022-08-30T05:41:23.329Z,19.60
2022-08-30T05:43:58.699Z,19.50
2022-08-30T05:46:29.431Z,19.60
2022-08-30T05:48:57.004Z,19.70
2022-08-30T05:51:26.447Z,19.70
2022-08-30T05:53:54.058Z,19.70
2022-08-30T05:56:27.241Z,19.80
2022-08-30T05:58:55.074Z,19.80
2022-08-30T06:01:34.432Z,19.90
2022-08-30T06:04:04.241Z,20.00
2022-08-30T06:06:33.766Z,20.30
2022-08-30T06:09:00.536Z,20.20
2022-08-30T06:11:27.906Z,20.40
2022-08-30T06:13:55.651Z,20.20
2022-08-30T06:16:24.847Z,20.00
2022-08-30T06:18:52.267Z,20.10
2022-08-30T06:21:22.027Z,20.30
2022-08-30T06:23:49.161Z,20.30
2022-08-30T06:26:16.529Z,20.50
2022-08-30T06:28:43.748Z,20.50
2022-08-30T06:31:12.623Z,20.50
2022-08-30T06:33:40.262Z,20.50
2022-08-30T06:36:11.174Z,20.50
2022-08-30T06:38:38.558Z,20.50
2022-08-30T06:41:07.655Z,20.60
2022-08-30T06:43:34.593Z,20.70
2022-08-30T06:46:05.865Z,20.60
2022-08-30T06:48:33.143Z,20.70
2022-08-30T06:50:59.973Z,20.90
2022-08-30T06:53:29.579Z,21.20
2022-08-30T06:56:03.592Z,20.90
2022-08-30T06:58:31.720Z,20.80
2022-08-30T07:00:58.804Z,21.00
2022-08-30T07:03:28.702Z,20.90
2022-08-30T07:05:57.015Z,20.90
2022-08-30T07:08:25.467Z,21.00
2022-08-30T07:10:56.125Z,21.00
2022-08-30T07:13:24.102Z,21.00
2022-08-30T07:15:51.934Z,21.10
2022-08-30T07:18:37.572Z,20.80
2022-08-30T07:21:17.092Z,21.00
2022-08-30T07:23:44.942Z,21.10
2022-08-30T07:26:14.781Z,21.10
2022-08-30T07:28:43.843Z,21.10
2022-08-30T07:31:11.969Z,21.30
2022-08-30T07:33:40.411Z,21.50
2022-08-30T07:36:08.016Z,21.60
2022-08-30T07:38:34.803Z,21.20
2022-08-30T07:41:02.060Z,21.20
2022-08-30T07:43:29.705Z,21.30
2022-08-30T07:46:01.381Z,21.50
2022-08-30T07:48:28.412Z,21.60
2022-08-30T07:50:58.997Z,21.50
2022-08-30T07:53:27.893Z,21.50
2022-08-30T07:55:54.812Z,21.70
2022-08-30T07:58:21.733Z,21.80
2022-08-30T08:00:48.893Z,21.70
2022-08-30T08:03:15.882Z,21.90
2022-08-30T08:05:45.268Z,21.90
2022-08-30T08:08:13.405Z,21.80
2022-08-30T08:10:41.827Z,21.90
2022-08-30T08:13:09.368Z,21.90
2022-08-30T08:15:36.532Z,22.10
2022-08-30T08:18:03.745Z,22.20
2022-08-30T08:20:32.326Z,22.20
2022-08-30T08:22:59.497Z,22.20
2022-08-30T08:25:26.996Z,22.20
2022-08-30T08:27:53.873Z,22.20
2022-08-30T08:30:23.894Z,22.30
2022-08-30T08:32:51.172Z,22.60
2022-08-30T08:35:18.787Z,22.90
2022-08-30T08:37:45.617Z,22.90
2022-08-30T08:40:16.486Z,23.00
2022-08-30T08:42:46.160Z,22.90
2022-08-30T08:45:19.226Z,23.00
2022-08-30T08:48:10.433Z,23.10
2022-08-30T08:51:02.460Z,23.30
2022-08-30T08:53:52.762Z,23.20
2022-08-30T08:56:22.687Z,23.30
2022-08-30T08:58:55.312Z,23.00
2022-08-30T09:01:30.636Z,23.40
2022-08-30T09:03:59.410Z,23.70
2022-08-30T09:06:26.266Z,23.60
2022-08-30T09:08:53.095Z,23.70
2022-08-30T09:11:29.816Z,23.60
2022-08-30T09:13:56.882Z,23.80
2022-08-30T09:16:51.555Z,23.80
2022-08-30T09:19:30.646Z,24.00
2022-08-30T09:22:06.965Z,24.10
2022-08-30T09:24:51.387Z,24.10
2022-08-30T09:27:30.390Z,24.10
2022-08-30T09:30:01.700Z,24.30
2022-08-30T09:32:41.333Z,24.00
2022-08-30T09:35:18.002Z,24.10
2022-08-30T09:38:06.365Z,24.40
2022-08-30T09:40:43.328Z,24.50
2022-08-30T09:43:21.712Z,24.70
2022-08-30T09:46:05.334Z,24.40
2022-08-30T09:48:40.445Z,24.50
2022-08-30T09:51:10.279Z,24.80
2022-08-30T09:57:11.723Z,24.80
2022-08-30T10:00:22.214Z,24.90
2022-08-30T10:03:34.819Z,25.20
2022-08-30T10:06:14.375Z,25.30
2022-08-30T10:08:50.544Z,25.30
2022-08-30T10:11:36.412Z,25.00
2022-08-30T10:14:24.680Z,25.40
2022-08-30T10:17:18.065Z,25.60
2022-08-30T10:20:02.449Z,25.80
2022-08-30T10:22:38.953Z,25.50
2022-08-30T10:25:20.307Z,25.50
2022-08-30T10:27:49.959Z,25.80
2022-08-30T10:30:18.491Z,25.70
2022-08-30T10:32:54.372Z,26.00
2022-08-30T10:35:28.457Z,26.20
2022-08-30T10:38:01.882Z,25.70
2022-08-30T10:40:54.583Z,25.60
2022-08-30T10:43:31.913Z,25.80
2022-08-30T10:46:06.145Z,25.60
2022-08-30T10:48:40.445Z,25.80
2022-08-30T10:51:23.034Z,25.80
2022-08-30T10:54:21.070Z,26.00
2022-08-30T10:56:51.564Z,26.40
2022-08-30T10:59:20.478Z,26.30
2022-08-30T11:02:15.509Z,26.40
2022-08-30T11:05:18.919Z,26.30
2022-08-30T11:07:54.433Z,26.70
2022-08-30T11:10:40.031Z,26.90
2022-08-30T11:13:21.026Z,26.90
2022-08-30T11:15:57.721Z,26.90
2022-08-30T11:18:27.699Z,27.00
2022-08-30T11:21:16.263Z,26.70
2022-08-30T11:24:09.083Z,26.90
2022-08-30T11:26:48.364Z,26.80
2022-08-30T11:29:37.896Z,26.90
2022-08-30T11:32:13.779Z,27.50
2022-08-30T11:34:46.989Z,27.00
2022-08-30T11:37:36.997Z,27.40
2022-08-30T11:40:15.551Z,27.30
2022-08-30T11:42:48.134Z,27.30
2022-08-30T11:45:26.824Z,26.90
2022-08-30T11:48:05.458Z,26.70
2022-08-30T11:50:55.261Z,27.10
2022-08-30T11:54:08.192Z,27.10
2022-08-30T11:56:52.645Z,27.20
2022-08-30T11:59:21.258Z,27.20
2022-08-30T12:01:52.140Z,27.70
2022-08-30T12:04:24.546Z,27.60
2022-08-30T12:07:00.491Z,27.50
2022-08-30T12:09:28.168Z,27.50
2022-08-30T12:12:10.524Z,27.50
2022-08-30T12:14:54.723Z,27.50
2022-08-30T12:17:49.029Z,26.70
2022-08-30T12:20:28.446Z,27.00
2022-08-30T12:22:56.972Z,27.50
2022-08-30T12:25:28.883Z,27.70
2022-08-30T12:28:11.069Z,27.90
2022-08-30T12:30:40.021Z,28.10
2022-08-30T12:33:12.145Z,27.80
2022-08-30T12:35:41.597Z,27.80
2022-08-30T12:38:18.738Z,28.00
2022-08-30T12:40:58.619Z,27.90
2022-08-30T12:43:33.109Z,27.50
2022-08-30T12:46:11.726Z,28.00
2022-08-30T12:48:40.632Z,28.30
2022-08-30T12:51:10.935Z,28.30
2022-08-30T12:53:42.454Z,28.00
2022-08-30T12:56:15.007Z,27.80
2022-08-30T12:58:45.576Z,28.10
2022-08-30T13:01:33.829Z,27.90
2022-08-30T13:04:00.874Z,28.10
2022-08-30T13:06:58.475Z,27.90
2022-08-30T13:09:38.930Z,27.90
2022-08-30T13:12:20.948Z,27.90
2022-08-30T13:14:49.811Z,28.30
2022-08-30T13:17:20.308Z,28.20
2022-08-30T13:19:56.429Z,28.00
2022-08-30T13:22:33.864Z,28.30
2022-08-30T13:25:01.679Z,28.00
2022-08-30T13:27:29.752Z,28.20
2022-08-30T13:29:58.139Z,28.50
2022-08-30T13:32:25.029Z,28.60
2022-08-30T13:34:51.823Z,28.80
2022-08-30T13:40:13.923Z,29.00
2022-08-30T13:42:42.852Z,29.10
2022-08-30T13:47:59.415Z,28.70
2022-08-30T13:50:26.629Z,28.70
2022-08-30T13:52:54.513Z,29.10
2022-08-30T13:55:21.380Z,28.80
2022-08-30T13:57:56.682Z,28.60
2022-08-30T14:00:26.038Z,29.10
2022-08-30T14:02:56.094Z,29.80
2022-08-30T14:05:48.278Z,29.40
2022-08-30T14:11:07.384Z,28.90
2022-08-30T14:13:34.224Z,29.00
2022-08-30T14:18:51.580Z,28.80
2022-08-30T14:21:24.234Z,29.00
2022-08-30T14:23:52.298Z,28.50
2022-08-30T14:26:22.992Z,28.60
2022-08-30T14:28:51.896Z,28.70
2022-08-30T14:31:19.723Z,28.70
2022-08-30T14:33:47.134Z,28.90
2022-08-30T14:36:15.367Z,29.20
2022-08-30T14:38:44.736Z,28.40
2022-08-30T14:41:11.757Z,28.20
2022-08-30T14:43:42.046Z,28.10
2022-08-30T14:46:10.927Z,28.50
2022-08-30T14:48:38.871Z,28.30
2022-08-30T14:51:15.355Z,28.30
2022-08-30T14:53:42.255Z,28.10
2022-08-30T14:56:12.157Z,28.30
2022-08-30T14:58:39.101Z,28.30
2022-08-30T15:01:10.955Z,27.90
2022-08-30T15:03:40.781Z,27.80
2022-08-30T15:06:08.392Z,28.10
2022-08-30T15:08:36.921Z,27.90
2022-08-30T15:11:12.415Z,27.90
2022-08-30T15:13:40.439Z,27.50
2022-08-30T15:16:12.223Z,27.10
2022-08-30T15:18:39.628Z,27.20
2022-08-30T15:21:09.037Z,27.20
2022-08-30T15:23:37.261Z,26.80
2022-08-30T15:26:06.973Z,27.10
2022-08-30T15:28:35.451Z,26.80
2022-08-30T15:31:08.273Z,26.90
2022-08-30T15:33:37.425Z,26.90
2022-08-30T15:36:05.100Z,27.10
2022-08-30T15:38:32.382Z,27.10
2022-08-30T15:41:03.575Z,26.90
2022-08-30T15:43:31.508Z,26.70
2022-08-30T15:46:17.572Z,26.50
2022-08-30T15:48:46.086Z,26.50
2022-08-30T15:51:13.631Z,26.40
2022-08-30T15:53:40.885Z,26.60
2022-08-30T15:56:08.208Z,26.40
2022-08-30T15:58:35.241Z,26.30
2022-08-30T16:01:04.787Z,26.20
2022-08-30T16:03:34.047Z,26.10
2022-08-30T16:06:01.033Z,26.00
2022-08-30T16:08:29.594Z,25.90
2022-08-30T16:10:56.403Z,26.00
2022-08-30T16:13:23.363Z,26.00
2022-08-30T16:15:50.472Z,26.00
2022-08-30T16:18:17.452Z,26.10
2022-08-30T16:20:44.716Z,26.00
2022-08-30T16:23:11.930Z,25.90
2022-08-30T16:25:40.676Z,26.00
2022-08-30T16:28:09.527Z,25.90
2022-08-30T16:30:36.858Z,25.80
2022-08-30T16:33:03.881Z,25.70
2022-08-30T16:35:32.921Z,25.70
2022-08-30T16:37:59.866Z,25.70
2022-08-30T16:40:26.836Z,25.70
2022-08-30T16:42:53.612Z,25.60
2022-08-30T16:45:20.414Z,25.60
2022-08-30T16:47:47.175Z,25.60
2022-08-30T16:50:16.669Z,25.50
2022-08-30T16:52:44.754Z,25.60
2022-08-30T16:55:11.578Z,25.60
2022-08-30T16:57:39.921Z,25.60
2022-08-30T17:00:13.244Z,25.60
2022-08-30T17:02:42.847Z,25.50
2022-08-30T17:05:21.577Z,25.50
2022-08-30T17:07:48.429Z,25.50
2022-08-30T17:10:16.206Z,25.50
2022-08-30T17:12:50.058Z,25.50
2022-08-30T17:15:16.946Z,25.50
2022-08-30T17:17:43.877Z,25.50
2022-08-30T17:20:11.114Z,25.50
2022-08-30T17:22:38.211Z,25.30
2022-08-30T17:25:05.531Z,25.30
2022-08-30T17:27:32.597Z,25.40
2022-08-30T17:29:59.423Z,25.30
2022-08-30T17:32:26.635Z,25.40
2022-08-30T17:34:53.988Z,25.40
2022-08-30T17:37:20.813Z,25.40
2022-08-30T17:39:48.171Z,25.30
2022-08-30T17:42:15.137Z,25.30
2022-08-30T17:44:42.467Z,25.20
2022-08-30T17:47:09.668Z,25.20
2022-08-30T17:49:36.694Z,25.00
2022-08-30T17:52:04.782Z,24.90
2022-08-30T17:54:33.653Z,24.80
2022-08-30T17:57:01.542Z,24.80
2022-08-30T17:59:29.244Z,24.90
2022-08-30T18:02:00.300Z,24.90
2022-08-30T18:04:27.227Z,25.00
2022-08-30T18:06:55.096Z,24.80
2022-08-30T18:09:22.378Z,24.80
2022-08-30T18:11:50.208Z,24.70
2022-08-30T18:14:17.280Z,24.70
2022-08-30T18:16:49.921Z,24.70
2022-08-30T18:19:26.513Z,24.70
2022-08-30T18:21:54.513Z,24.70
2022-08-30T18:24:22.718Z,24.80
2022-08-30T18:26:49.670Z,24.70
2022-08-30T18:29:26.360Z,24.80
2022-08-30T18:32:01.552Z,24.70
2022-08-30T18:34:29.137Z,24.60
2022-08-30T18:36:56.321Z,24.70
2022-08-30T18:39:23.763Z,24.60
2022-08-30T18:41:54.355Z,24.70
2022-08-30T18:44:28.196Z,24.60
2022-08-30T18:47:11.602Z,24.60
2022-08-30T18:49:38.522Z,24.60
2022-08-30T18:52:08.222Z,24.50
2022-08-30T18:54:51.721Z,24.50
2022-08-30T18:57:21.108Z,24.40
2022-08-30T18:59:49.358Z,24.40
2022-08-30T19:02:17.597Z,24.50
2022-08-30T19:04:45.324Z,24.50
2022-08-30T19:07:15.998Z,24.40
2022-08-30T19:09:45.354Z,24.30
2022-08-30T19:12:12.670Z,24.30
2022-08-30T19:14:39.737Z,24.30
2022-08-30T19:17:07.342Z,24.20
2022-08-30T19:19:36.857Z,24.00
2022-08-30T19:22:14.707Z,23.80
2022-08-30T19:24:41.891Z,23.80
2022-08-30T19:27:10.350Z,23.80
2022-08-30T19:29:37.109Z,23.90
2022-08-30T19:32:04.117Z,23.80
2022-08-30T19:34:30.869Z,24.00
2022-08-30T19:36:58.105Z,24.00
2022-08-30T19:39:24.948Z,23.80
2022-08-30T19:41:51.738Z,23.70
2022-08-30T19:44:19.366Z,23.80
2022-08-30T19:46:46.483Z,23.80
2022-08-30T19:49:13.317Z,23.80
2022-08-30T19:51:46.567Z,23.60
2022-08-30T19:54:14.306Z,23.50
2022-08-30T19:56:41.058Z,23.50
2022-08-30T19:59:07.870Z,23.60
2022-08-30T20:01:34.894Z,23.70
2022-08-30T20:04:02.594Z,23.70
2022-08-30T20:06:30.757Z,23.50
2022-08-30T20:08:58.457Z,23.60
2022-08-30T20:11:27.771Z,23.50
2022-08-30T20:13:54.949Z,23.40
2022-08-30T20:16:35.512Z,23.30
2022-08-30T20:19:05.502Z,23.30
2022-08-30T20:21:33.365Z,23.40
2022-08-30T20:24:01.182Z,23.30
2022-08-30T20:26:34.001Z,23.10
2022-08-30T20:29:02.805Z,23.10
2022-08-30T20:31:29.734Z,23.10
2022-08-30T20:33:56.658Z,23.20
2022-08-30T20:36:23.573Z,23.10
2022-08-30T20:38:51.084Z,22.90
2022-08-30T20:41:19.762Z,22.70
2022-08-30T20:43:48.806Z,22.80
2022-08-30T20:46:18.772Z,22.90
2022-08-30T20:48:46.358Z,23.10
2022-08-30T20:51:16.834Z,23.00
2022-08-30T20:53:44.195Z,23.10
2022-08-30T20:56:16.511Z,23.20
2022-08-30T20:58:43.902Z,23.30
2022-08-30T21:01:12.552Z,23.40
2022-08-30T21:03:40.955Z,23.50
2022-08-30T21:06:08.229Z,23.40
2022-08-30T21:08:35.463Z,23.30
2022-08-30T21:11:02.365Z,23.30
2022-08-30T21:13:29.995Z,23.10
2022-08-30T21:16:00.587Z,23.00
2022-08-30T21:18:32.931Z,22.50
2022-08-30T21:21:07.546Z,22.50
2022-08-30T21:23:35.909Z,22.40
2022-08-30T21:26:06.900Z,22.50
2022-08-30T21:28:34.325Z,22.40
2022-08-30T21:31:12.597Z,22.30
2022-08-30T21:33:40.549Z,22.40
2022-08-30T21:36:27.645Z,22.40
2022-08-30T21:39:00.472Z,22.20
2022-08-30T21:41:29.143Z,22.00
2022-08-30T21:43:58.028Z,21.90
2022-08-30T21:46:26.180Z,21.70
2022-08-30T21:48:54.022Z,21.60
2022-08-30T21:51:21.174Z,21.90
2022-08-30T21:53:48.008Z,21.80
2022-08-30T21:56:21.689Z,21.70
2022-08-30T21:58:49.911Z,21.70
2022-08-30T22:01:21.118Z,21.60
2022-08-30T22:03:48.103Z,21.60
2022-08-30T22:06:15.526Z,21.70
2022-08-30T22:08:44.921Z,21.60
2022-08-30T22:11:15.210Z,21.70
2022-08-30T22:13:45.194Z,21.60
2022-08-30T22:16:16.037Z,21.50
2022-08-30T22:18:43.530Z,21.70
2022-08-30T22:21:13.057Z,21.60
2022-08-30T22:23:40.480Z,21.40
2022-08-30T22:26:09.921Z,21.50
2022-08-30T22:28:36.902Z,21.40
2022-08-30T22:31:06.986Z,21.50
2022-08-30T22:33:34.649Z,21.40
2022-08-30T22:36:17.522Z,21.20
2022-08-30T22:38:44.641Z,21.40
2022-08-30T22:41:14.878Z,21.60
2022-08-30T22:43:41.693Z,21.70
2022-08-30T22:46:09.127Z,21.60
2022-08-30T22:48:37.685Z,21.50
2022-08-30T22:51:05.415Z,21.50
2022-08-30T22:53:32.994Z,21.30
2022-08-30T22:56:01.144Z,21.30
2022-08-30T22:58:29.446Z,21.20
2022-08-30T23:00:56.378Z,21.30
2022-08-30T23:03:23.274Z,21.40
2022-08-30T23:05:50.048Z,21.60
2022-08-30T23:08:16.862Z,21.50
2022-08-30T23:10:44.375Z,21.40
2022-08-30T23:13:11.706Z,21.20
2022-08-30T23:15:38.483Z,21.30
2022-08-30T23:18:05.521Z,21.30
2022-08-30T23:20:32.332Z,21.30
2022-08-30T23:22:59.459Z,21.20
2022-08-30T23:25:47.237Z,21.40
2022-08-30T23:28:37.149Z,21.20
2022-08-30T23:31:35.572Z,21.50
2022-08-30T23:34:21.532Z,21.50
2022-08-30T23:37:06.714Z,21.30
2022-08-30T23:39:51.853Z,21.50
2022-08-30T23:42:37.524Z,21.30
2022-08-30T23:45:23.522Z,21.40
2022-08-30T23:48:08.761Z,21.50
2022-08-30T23:50:54.165Z,21.60
2022-08-30T23:53:39.369Z,21.60
2022-08-30T23:56:30.448Z,21.40
2022-08-30T23:59:18.887Z,21.50
